Airfield :
LOGIN :

Register | Disclaimer

   EN    FR    IT 

 










Legend :    VFR   Marginal VFR   IFR   Intensive IFR   Very Intensive IFR
Visi :
Ceiling :
>= 8 km
>= 3000ft
5 to 8 km
1000 to 3000 ft
1500m to 5 km
500 to 1000 ft
800 to 1500m
200 to 500 ft
< 800m
< 200 ft
Symbols :   Thunderstorms  Fog  Heavy snow  Heavy precipitations  Wind > 20 kt
SIGMETs :     Misc.  Thunderstorms  Icing  Turbulence  Mountain Waves  Volcanic Ashes






- Airport Elevation : 433 ft
- IATA code : CCF


LFMK - Carcassonne

CURRENT METAR :
  • 301400Z AUTO 26009KT 230V290 CAVOK 09/05 Q1016 NOSIG

EXPIRED METARs :
  • 301330Z AUTO 27010KT CAVOK 09/05 Q1017 NOSIG
  • 301300Z AUTO 28009KT 230V300 CAVOK 09/05 Q1017 NOSIG
  • 301230Z AUTO 28008KT 240V310 9999 FEW012 09/05 Q1017 NOSIG
  • 301200Z AUTO 26009KT 230V290 9999 BKN011 08/05 Q1017 BECMG FEW016
  • 301130Z AUTO 27008KT 230V300 9999 SCT011 08/05 Q1018 TEMPO BKN010

TAF TAF LFMK
Valid from the 30 at 09:00 until the 01 at 09:00 UTC


300800Z 3009/0109 27008KT 9999 OVC005
BECMG 3010/3012 BKN010
BECMG 3013/3015 FEW016
BECMG 3018/3020 BKN008
TEMPO 3021/0109 4000 BR OVC004



MET'MAP, your aeronautical weather chart ! - Copyright ORBIFLY December 2007 - Disclaimer

ORBIFLY MET'MAP TEAM :

Programming & Development : Alexandra Zaïnal
Original concept : Baudouin d'Aumeries
Technical & hardware support : Manuel Goepfert
Assistance : Marc-Olivier Méhu




SOURCES & CREDITS :

   NOAA